createdAt,value
2018-06-12T00:00:38.026Z,16.40
2018-06-12T00:03:07.941Z,16.52
2018-06-12T00:05:35.814Z,16.55
2018-06-12T00:08:05.173Z,16.32
2018-06-12T00:10:33.077Z,16.37
2018-06-12T00:13:05.457Z,15.90
2018-06-12T00:15:33.056Z,16.70
2018-06-12T00:18:01.588Z,15.53
2018-06-12T00:20:29.357Z,15.90
2018-06-12T00:22:57.426Z,15.15
2018-06-12T00:25:25.976Z,15.90
2018-06-12T00:27:53.882Z,16.77
2018-06-12T00:30:21.951Z,16.90
2018-06-12T00:32:51.252Z,16.42
2018-06-12T00:35:18.910Z,16.25
2018-06-12T00:37:46.527Z,16.97
2018-06-12T00:40:14.198Z,16.45
2018-06-12T00:42:41.830Z,15.68
2018-06-12T00:45:09.626Z,16.00
2018-06-12T00:47:39.241Z,14.63
2018-06-12T00:50:08.366Z,16.52
2018-06-12T00:52:44.575Z,15.13
2018-06-12T00:55:13.108Z,14.95
2018-06-12T00:57:41.794Z,14.70
2018-06-12T01:00:10.642Z,15.38
2018-06-12T01:02:39.328Z,15.68
2018-06-12T01:05:07.414Z,15.90
2018-06-12T01:07:37.153Z,15.65
2018-06-12T01:10:06.322Z,16.57
2018-06-12T01:12:34.502Z,15.48
2018-06-12T01:15:03.517Z,16.40
2018-06-12T01:17:31.150Z,15.68
2018-06-12T01:19:58.759Z,16.60
2018-06-12T01:22:26.681Z,15.80
2018-06-12T01:24:55.196Z,16.17
2018-06-12T01:27:24.913Z,16.00
2018-06-12T01:29:54.413Z,15.23
2018-06-12T01:32:22.214Z,15.43
2018-06-12T01:34:52.086Z,15.72
2018-06-12T01:37:19.755Z,15.45
2018-06-12T01:39:47.442Z,14.93
2018-06-12T01:42:15.236Z,14.50
2018-06-12T01:44:42.932Z,13.72
2018-06-12T01:47:11.522Z,13.75
2018-06-12T01:49:40.208Z,13.80
2018-06-12T01:52:09.979Z,13.32
2018-06-12T01:54:39.111Z,13.65
2018-06-12T01:57:09.952Z,13.40
2018-06-12T01:59:39.097Z,13.50
2018-06-12T02:02:07.015Z,13.13
2018-06-12T02:04:35.100Z,13.70
2018-06-12T02:07:04.739Z,12.85
2018-06-12T02:09:33.242Z,13.20
2018-06-12T02:12:02.682Z,12.78
2018-06-12T02:14:30.755Z,13.10
2018-06-12T02:16:59.086Z,13.13
2018-06-12T02:19:27.203Z,12.73
2018-06-12T02:21:55.276Z,12.68
2018-06-12T02:24:23.348Z,13.38
2018-06-12T02:26:51.072Z,12.68
2018-06-12T02:29:18.773Z,13.20
2018-06-12T02:31:47.653Z,12.85
2018-06-12T02:34:17.025Z,13.10
2018-06-12T02:36:45.099Z,12.18
2018-06-12T02:39:13.165Z,12.20
2018-06-12T02:41:41.075Z,12.37
2018-06-12T02:44:08.767Z,13.18
2018-06-12T02:46:37.525Z,12.30
2018-06-12T02:49:05.195Z,11.95
2018-06-12T02:51:32.818Z,12.82
2018-06-12T02:54:00.688Z,13.13
2018-06-12T02:56:28.899Z,13.50
2018-06-12T02:58:57.115Z,13.25
2018-06-12T03:01:25.893Z,12.70
2018-06-12T03:03:54.644Z,12.98
2018-06-12T03:06:23.323Z,13.18
2018-06-12T03:08:51.267Z,13.05
2018-06-12T03:11:19.331Z,13.90
2018-06-12T03:13:49.004Z,14.18
2018-06-12T03:16:18.378Z,13.80
2018-06-12T03:18:46.447Z,14.07
2018-06-12T03:21:14.518Z,13.80
2018-06-12T03:23:44.436Z,13.15
2018-06-12T03:26:12.509Z,14.33
2018-06-12T03:28:40.886Z,13.65
2018-06-12T03:31:09.881Z,14.58
2018-06-12T03:33:37.958Z,14.83
2018-06-12T03:36:06.944Z,14.45
2018-06-12T03:38:34.858Z,13.93
2018-06-12T03:41:02.648Z,14.95
2018-06-12T03:43:30.850Z,15.03
2018-06-12T03:45:58.770Z,14.47
2018-06-12T03:48:27.308Z,13.08
2018-06-12T03:50:54.974Z,13.03
2018-06-12T03:53:22.651Z,12.73
2018-06-12T03:55:50.276Z,12.78
2018-06-12T03:58:17.928Z,12.50
2018-06-12T04:00:47.968Z,12.60
2018-06-12T04:03:16.877Z,13.03
2018-06-12T04:05:45.649Z,12.13
2018-06-12T04:08:13.717Z,13.05
2018-06-12T04:10:41.362Z,12.58
2018-06-12T04:13:08.962Z,12.40
2018-06-12T04:15:37.580Z,13.10
2018-06-12T04:18:05.388Z,13.32
2018-06-12T04:20:33.667Z,12.60
2018-06-12T04:23:01.532Z,11.90
2018-06-12T04:25:30.213Z,13.32
2018-06-12T04:27:57.895Z,12.82
2018-06-12T04:30:25.578Z,13.68
2018-06-12T04:32:53.183Z,13.28
2018-06-12T04:35:21.887Z,13.75
2018-06-12T04:37:49.541Z,13.22
2018-06-12T04:40:17.297Z,13.70
2018-06-12T04:42:44.919Z,13.88
2018-06-12T04:45:12.552Z,12.82
2018-06-12T04:47:40.329Z,13.28
2018-06-12T04:50:08.476Z,12.73
2018-06-12T04:52:36.546Z,13.03
2018-06-12T04:55:05.234Z,13.75
2018-06-12T04:57:33.924Z,13.03
2018-06-12T05:00:01.624Z,13.05
2018-06-12T05:02:29.337Z,12.53
2018-06-12T05:04:57.517Z,12.55
2018-06-12T05:07:26.063Z,13.28
2018-06-12T05:09:56.537Z,12.88
2018-06-12T05:12:24.495Z,12.23
2018-06-12T05:14:53.023Z,12.18
2018-06-12T05:17:21.203Z,14.30
2018-06-12T05:19:49.948Z,12.65
2018-06-12T05:22:18.015Z,13.10
2018-06-12T05:24:47.616Z,14.07
2018-06-12T05:27:30.354Z,12.60
2018-06-12T05:37:17.796Z,12.45
2018-06-12T05:50:42.090Z,11.73
2018-06-12T05:53:10.132Z,11.70
2018-06-12T05:55:37.895Z,10.60
2018-06-12T05:58:22.828Z,12.13
2018-06-12T06:00:53.009Z,12.58
2018-06-12T06:03:28.774Z,12.20
2018-06-12T06:05:57.216Z,13.20
2018-06-12T06:08:53.548Z,12.40
2018-06-12T06:13:04.226Z,18.92
2018-06-12T06:15:31.850Z,16.57
2018-06-12T06:17:59.492Z,16.15
2018-06-12T06:20:27.111Z,16.37
2018-06-12T06:22:54.790Z,14.20
2018-06-12T06:25:22.375Z,14.85
2018-06-12T06:27:50.040Z,17.92
2018-06-12T06:30:17.714Z,17.85
2018-06-12T06:32:45.367Z,15.05
2018-06-12T06:35:13.027Z,18.25
2018-06-12T06:37:40.639Z,15.30
2018-06-12T06:40:08.736Z,14.63
2018-06-12T06:42:36.479Z,15.63
2018-06-12T06:45:04.091Z,17.62
2018-06-12T06:47:31.751Z,17.80
2018-06-12T06:49:59.394Z,15.18
2018-06-12T06:52:27.102Z,16.62
2018-06-12T06:54:54.722Z,17.60
2018-06-12T06:57:22.379Z,15.58
2018-06-12T06:59:50.062Z,18.80
2018-06-12T07:02:17.717Z,20.20
2018-06-12T07:04:45.364Z,20.75
2018-06-12T07:07:13.012Z,21.50
2018-06-12T07:09:40.654Z,18.15
2018-06-12T07:12:08.720Z,20.70
2018-06-12T07:14:36.479Z,22.02
2018-06-12T07:17:04.168Z,20.45
2018-06-12T07:19:31.873Z,20.68
2018-06-12T07:21:59.498Z,21.50
2018-06-12T07:24:27.110Z,20.90
2018-06-12T07:26:54.723Z,20.23
2018-06-12T07:29:22.399Z,20.85
2018-06-12T07:31:50.022Z,22.30
2018-06-12T07:34:17.631Z,19.17
2018-06-12T07:36:45.224Z,19.45
2018-06-12T07:39:12.874Z,21.90
2018-06-12T07:41:40.498Z,19.90
2018-06-12T07:44:08.099Z,16.42
2018-06-12T07:46:35.676Z,14.15
2018-06-12T07:49:03.299Z,18.25
2018-06-12T07:51:30.918Z,17.92
2018-06-12T07:53:58.554Z,17.65
2018-06-12T07:56:26.187Z,16.77
2018-06-12T07:58:53.777Z,17.32
2018-06-12T08:01:21.387Z,15.03
2018-06-12T08:03:49.034Z,19.10
2018-06-12T08:06:16.638Z,18.35
2018-06-12T08:08:44.539Z,19.07
2018-06-12T08:11:12.129Z,19.57
2018-06-12T08:13:39.748Z,16.90
2018-06-12T08:16:07.371Z,18.55
2018-06-12T08:18:35.038Z,19.65
2018-06-12T08:21:02.682Z,18.27
2018-06-12T08:23:30.318Z,17.65
2018-06-12T08:25:57.920Z,16.25
2018-06-12T08:28:25.570Z,15.15
2018-06-12T08:30:53.199Z,13.70
2018-06-12T08:33:20.862Z,14.90
2018-06-12T08:35:48.551Z,13.05
2018-06-12T08:38:16.163Z,12.25
2018-06-12T08:40:43.770Z,14.20
2018-06-12T08:43:11.350Z,13.93
2018-06-12T08:45:38.923Z,13.78
2018-06-12T08:48:06.513Z,13.88
2018-06-12T08:50:34.141Z,11.50
2018-06-12T08:53:01.783Z,13.40
2018-06-12T08:55:29.430Z,12.73
2018-06-12T08:57:57.044Z,12.68
2018-06-12T09:00:24.643Z,14.75
2018-06-12T09:02:52.265Z,14.63
2018-06-12T09:05:19.864Z,15.50
2018-06-12T09:07:47.486Z,11.60
2018-06-12T09:10:15.078Z,13.20
2018-06-12T09:12:42.702Z,10.70
2018-06-12T09:15:10.312Z,11.08
2018-06-12T09:17:37.945Z,12.07
2018-06-12T09:20:05.542Z,12.35
2018-06-12T09:22:33.159Z,9.35
2018-06-12T09:25:00.751Z,10.80
2018-06-12T09:27:28.375Z,8.95
2018-06-12T09:29:55.986Z,10.78
2018-06-12T09:32:23.631Z,10.28
2018-06-12T09:34:51.301Z,9.03
2018-06-12T09:37:18.917Z,10.23
2018-06-12T09:39:46.514Z,8.83
2018-06-12T09:42:14.143Z,9.45
2018-06-12T09:44:41.751Z,8.38
2018-06-12T09:47:09.618Z,10.40
2018-06-12T09:49:37.197Z,9.00
2018-06-12T09:52:04.787Z,8.08
2018-06-12T09:54:32.387Z,7.37
2018-06-12T09:56:59.986Z,7.58
2018-06-12T09:59:27.599Z,9.13
2018-06-12T10:01:55.179Z,9.13
2018-06-12T10:04:22.851Z,9.33
2018-06-12T10:06:50.464Z,8.73
2018-06-12T10:09:18.107Z,10.18
2018-06-12T10:11:45.735Z,12.00
2018-06-12T10:14:13.340Z,10.93
2018-06-12T10:16:40.983Z,10.72
2018-06-12T10:19:08.707Z,8.23
2018-06-12T10:21:36.411Z,8.43
2018-06-12T10:24:04.019Z,8.13
2018-06-12T10:26:31.598Z,8.03
2018-06-12T10:28:59.246Z,8.08
2018-06-12T10:31:26.874Z,7.40
2018-06-12T10:33:54.566Z,7.50
2018-06-12T10:36:22.238Z,6.53
2018-06-12T10:38:49.858Z,8.48
2018-06-12T10:41:17.486Z,7.95
2018-06-12T10:43:45.184Z,8.03
2018-06-12T10:46:12.740Z,8.03
2018-06-12T10:48:40.346Z,7.80
2018-06-12T10:51:08.642Z,8.33
2018-06-12T10:53:36.374Z,8.40
2018-06-12T10:56:03.986Z,7.47
2018-06-12T10:58:31.656Z,8.08
2018-06-12T11:00:59.239Z,7.33
2018-06-12T11:03:26.843Z,8.03
2018-06-12T11:05:54.479Z,7.90
2018-06-12T11:08:22.079Z,7.45
2018-06-12T11:10:49.716Z,7.20
2018-06-12T11:13:17.314Z,6.45
2018-06-12T11:15:44.946Z,7.45
2018-06-12T11:18:12.614Z,7.20
2018-06-12T11:20:40.230Z,7.05
2018-06-12T11:23:07.818Z,6.87
2018-06-12T11:25:35.485Z,6.10
2018-06-12T11:28:03.096Z,6.15
2018-06-12T11:30:30.696Z,6.15
2018-06-12T11:32:58.265Z,6.75
2018-06-12T11:35:25.879Z,7.70
2018-06-12T11:37:53.549Z,6.83
2018-06-12T11:40:21.164Z,7.72
2018-06-12T11:42:48.782Z,7.50
2018-06-12T11:45:16.378Z,7.17
2018-06-12T11:47:43.958Z,5.87
2018-06-12T11:50:11.567Z,6.40
2018-06-12T11:52:39.542Z,7.47
2018-06-12T11:55:07.130Z,6.87
2018-06-12T11:57:34.746Z,6.85
2018-06-12T12:00:02.555Z,7.40
2018-06-12T12:02:30.158Z,7.95
2018-06-12T12:04:57.766Z,8.10
2018-06-12T12:07:25.358Z,6.47
2018-06-12T12:09:52.961Z,8.80
2018-06-12T12:12:20.562Z,6.30
2018-06-12T12:14:48.162Z,6.78
2018-06-12T12:17:15.774Z,6.75
2018-06-12T12:19:43.342Z,6.10
2018-06-12T12:22:10.987Z,5.92
2018-06-12T12:24:38.651Z,5.05
2018-06-12T12:27:06.294Z,4.05
2018-06-12T12:29:33.870Z,4.25
2018-06-12T12:32:01.498Z,4.65
2018-06-12T12:34:29.091Z,4.15
2018-06-12T12:36:56.730Z,4.08
2018-06-12T12:39:24.321Z,4.00
2018-06-12T12:41:51.914Z,4.30
2018-06-12T12:44:19.502Z,4.47
2018-06-12T12:46:47.096Z,4.45
2018-06-12T12:49:14.727Z,4.37
2018-06-12T13:01:50.268Z,4.65
2018-06-12T13:04:17.824Z,4.33
2018-06-12T13:06:45.423Z,4.62
2018-06-12T13:09:13.006Z,4.50
2018-06-12T13:11:40.566Z,4.72
2018-06-12T13:14:08.939Z,4.40
2018-06-12T13:16:36.512Z,4.53
2018-06-12T13:19:04.070Z,4.58
2018-06-12T13:21:31.645Z,4.72
2018-06-12T13:23:59.219Z,4.87
2018-06-12T13:26:26.786Z,4.87
2018-06-12T13:28:54.428Z,4.25
2018-06-12T13:31:21.990Z,4.30
2018-06-12T13:33:49.620Z,4.50
2018-06-12T13:36:17.379Z,4.50
2018-06-12T13:38:44.986Z,4.25
2018-06-12T13:41:12.568Z,4.97
2018-06-12T13:43:40.114Z,5.10
2018-06-12T13:46:07.686Z,4.60
2018-06-12T13:48:35.265Z,4.40
2018-06-12T13:51:02.818Z,4.60
2018-06-12T13:53:30.370Z,4.60
2018-06-12T13:55:58.138Z,3.80
2018-06-12T13:58:26.086Z,4.42
2018-06-12T14:00:53.646Z,3.40
2018-06-12T14:03:21.314Z,4.50
2018-06-12T14:05:48.918Z,4.58
2018-06-12T14:08:16.679Z,3.75
2018-06-12T14:10:44.289Z,4.40
2018-06-12T14:13:11.842Z,3.50
2018-06-12T14:15:39.418Z,3.72
2018-06-12T14:18:07.021Z,4.03
2018-06-12T14:20:34.582Z,4.00
2018-06-12T14:23:02.505Z,4.15
2018-06-12T14:25:30.572Z,3.80
2018-06-12T14:27:58.496Z,4.15
2018-06-12T14:30:26.716Z,3.98
2018-06-12T14:32:54.686Z,2.40
2018-06-12T14:35:22.246Z,2.08
2018-06-12T14:37:50.891Z,3.55
2018-06-12T14:40:18.694Z,4.28
2018-06-12T14:42:46.768Z,4.22
2018-06-12T14:45:14.330Z,4.65
2018-06-12T14:47:42.294Z,4.78
2018-06-12T14:50:10.192Z,4.35
2018-06-12T14:52:37.806Z,4.60
2018-06-12T14:55:05.386Z,4.25
2018-06-12T14:57:32.978Z,5.17
2018-06-12T15:00:00.550Z,5.05
2018-06-12T15:02:28.422Z,5.45
2018-06-12T15:04:56.054Z,5.47
2018-06-12T15:07:23.639Z,5.03
2018-06-12T15:09:51.242Z,4.90
2018-06-12T15:12:18.838Z,4.70
2018-06-12T15:14:46.406Z,4.83
2018-06-12T15:17:13.962Z,4.37
2018-06-12T15:19:41.550Z,5.20
2018-06-12T15:22:09.186Z,5.17
2018-06-12T15:24:36.764Z,5.00
2018-06-12T15:27:04.363Z,5.58
2018-06-12T15:29:31.970Z,5.10
2018-06-12T15:31:59.559Z,5.85
2018-06-12T15:34:27.383Z,5.42
2018-06-12T15:37:13.250Z,5.40
2018-06-12T15:39:41.014Z,5.25
2018-06-12T15:42:08.613Z,4.87
2018-06-12T15:44:36.191Z,4.30
2018-06-12T15:47:03.868Z,5.08
2018-06-12T15:49:31.485Z,5.40
2018-06-12T15:51:59.071Z,5.45
2018-06-12T15:54:26.668Z,4.20
2018-06-12T15:56:54.535Z,4.45
2018-06-12T15:59:22.124Z,4.28
2018-06-12T16:01:49.708Z,4.42
2018-06-12T16:04:17.282Z,4.17
2018-06-12T16:06:44.867Z,4.30
2018-06-12T16:09:12.462Z,3.85
2018-06-12T16:11:40.435Z,4.22
2018-06-12T16:14:08.193Z,4.42
2018-06-12T16:16:36.269Z,4.25
2018-06-12T16:19:04.331Z,4.40
2018-06-12T16:21:31.946Z,4.67
2018-06-12T16:23:59.554Z,4.33
2018-06-12T16:26:27.478Z,4.50
2018-06-12T16:28:55.480Z,4.20
2018-06-12T16:31:23.038Z,4.28
2018-06-12T16:33:50.651Z,4.20
2018-06-12T16:36:18.214Z,3.95
2018-06-12T16:38:45.887Z,10.20
2018-06-12T16:41:13.908Z,9.03
2018-06-12T16:43:41.538Z,8.30
2018-06-12T16:46:09.148Z,7.47
2018-06-12T16:48:36.738Z,6.75
2018-06-12T16:51:04.327Z,7.45
2018-06-12T16:53:31.902Z,8.70
2018-06-12T16:55:59.677Z,9.03
2018-06-12T16:58:27.378Z,10.85
2018-06-12T17:02:26.041Z,10.50
2018-06-12T17:04:54.113Z,10.45
2018-06-12T17:07:21.759Z,10.35
2018-06-12T17:09:49.347Z,7.53
2018-06-12T17:12:17.024Z,7.15
2018-06-12T17:16:02.279Z,7.75
2018-06-12T17:18:29.883Z,4.37
2018-06-12T17:20:57.470Z,4.83
2018-06-12T17:23:25.877Z,5.53
2018-06-12T17:25:53.953Z,4.92
2018-06-12T17:28:22.328Z,6.12
2018-06-12T17:30:50.399Z,5.42
2018-06-12T17:33:17.966Z,4.17
2018-06-12T17:35:45.941Z,4.95
2018-06-12T17:38:13.524Z,4.72
2018-06-12T17:40:41.423Z,7.08
2018-06-12T17:43:09.003Z,5.37
2018-06-12T17:45:37.602Z,6.25
2018-06-12T17:48:05.673Z,4.55
2018-06-12T17:50:33.746Z,4.10
2018-06-12T17:53:02.430Z,5.80
2018-06-12T17:55:32.655Z,4.62
2018-06-12T17:58:03.186Z,4.22
2018-06-12T18:00:33.319Z,3.92
2018-06-12T18:03:03.046Z,4.15
2018-06-12T18:05:34.158Z,4.45
2018-06-12T18:08:04.738Z,4.10
2018-06-12T18:10:33.085Z,3.85
2018-06-12T18:13:00.983Z,4.05
2018-06-12T18:15:29.819Z,3.98
2018-06-12T18:17:57.888Z,4.28
2018-06-12T18:20:25.959Z,4.53
2018-06-12T18:22:54.951Z,4.62
2018-06-12T18:25:23.037Z,5.20
2018-06-12T18:27:51.255Z,5.50
2018-06-12T18:30:19.473Z,5.30
2018-06-12T18:33:01.616Z,6.37
2018-06-12T18:35:29.441Z,5.30
2018-06-12T18:37:57.516Z,5.70
2018-06-12T18:40:25.894Z,6.10
2018-06-12T18:42:53.965Z,5.42
2018-06-12T18:45:22.954Z,5.40
2018-06-12T18:47:50.875Z,4.90
2018-06-12T18:50:19.025Z,5.95
2018-06-12T18:52:47.782Z,5.20
2018-06-12T18:55:15.854Z,5.72
2018-06-12T18:57:43.459Z,5.60
2018-06-12T19:00:11.388Z,6.03
2018-06-12T19:02:39.020Z,6.08
2018-06-12T19:05:06.605Z,5.90
2018-06-12T19:07:34.231Z,5.80
2018-06-12T19:10:02.133Z,5.95
2018-06-12T19:12:30.206Z,5.72
2018-06-12T19:14:58.274Z,5.55
2018-06-12T19:17:25.920Z,5.92
2018-06-12T19:19:54.422Z,6.75
2018-06-12T19:22:22.489Z,5.85
2018-06-12T19:24:50.092Z,5.80
2018-06-12T19:27:17.773Z,6.58
2018-06-12T19:29:45.355Z,6.78
2018-06-12T19:32:13.017Z,6.05
2018-06-12T19:34:40.654Z,6.22
2018-06-12T19:37:08.601Z,5.80
2018-06-12T19:39:36.855Z,5.85
2018-06-12T19:42:05.527Z,5.95
2018-06-12T19:44:33.599Z,5.97
2018-06-12T19:47:01.670Z,6.62
2018-06-12T19:49:29.314Z,6.90
2018-06-12T19:51:57.199Z,6.65
2018-06-12T19:54:25.009Z,6.78
2018-06-12T19:56:53.659Z,7.10
2018-06-12T19:59:21.271Z,7.12
2018-06-12T20:01:49.181Z,7.58
2018-06-12T20:04:16.815Z,7.97
2018-06-12T20:06:44.706Z,8.28
2018-06-12T20:09:12.778Z,8.55
2018-06-12T20:11:40.850Z,9.60
2018-06-12T20:14:08.532Z,8.60
2018-06-12T20:16:36.139Z,7.87
2018-06-12T20:19:04.143Z,8.40
2018-06-12T20:21:32.215Z,8.33
2018-06-12T20:24:00.292Z,8.68
2018-06-12T20:26:28.702Z,8.63
2018-06-12T20:28:56.328Z,8.60
2018-06-12T20:31:23.945Z,9.00
2018-06-12T20:33:51.959Z,7.97
2018-06-12T20:36:20.030Z,8.90
2018-06-12T20:38:47.794Z,9.20
2018-06-12T20:41:16.180Z,8.90
2018-06-12T20:43:44.718Z,9.65
2018-06-12T20:46:12.679Z,9.28
2018-06-12T20:48:42.805Z,9.40
2018-06-12T20:51:10.918Z,10.08
2018-06-12T20:53:38.556Z,9.90
2018-06-12T20:56:06.450Z,10.72
2018-06-12T20:58:34.053Z,9.83
2018-06-12T21:01:01.975Z,10.18
2018-06-12T21:03:30.354Z,9.98
2018-06-12T21:05:58.426Z,9.88
2018-06-12T21:08:26.805Z,10.05
2018-06-12T21:10:54.538Z,10.30
2018-06-12T21:13:22.640Z,10.30
2018-06-12T21:15:50.712Z,10.23
2018-06-12T21:18:18.482Z,10.65
2018-06-12T21:20:46.856Z,10.78
2018-06-12T21:23:14.530Z,11.75
2018-06-12T21:25:42.155Z,10.48
2018-06-12T21:28:09.750Z,10.35
2018-06-12T21:30:37.605Z,10.00
2018-06-12T21:33:05.334Z,9.85
2018-06-12T21:35:33.134Z,10.65
2018-06-12T21:38:00.771Z,10.13
2018-06-12T21:40:28.649Z,10.32
2018-06-12T21:42:56.397Z,9.70
2018-06-12T21:45:23.996Z,10.08
2018-06-12T21:47:51.592Z,10.10
2018-06-12T21:50:19.250Z,10.60
2018-06-12T21:52:46.842Z,10.28
2018-06-12T21:55:14.439Z,10.58
2018-06-12T21:57:42.408Z,10.32
2018-06-12T22:00:10.472Z,11.12
2018-06-12T22:02:38.078Z,10.88
2018-06-12T22:05:05.660Z,10.98
2018-06-12T22:07:34.226Z,11.30
2018-06-12T22:10:01.862Z,10.82
2018-06-12T22:12:29.454Z,10.48
2018-06-12T22:14:57.104Z,11.08
2018-06-12T22:17:25.207Z,11.15
2018-06-12T22:19:52.814Z,11.45
2018-06-12T22:22:20.394Z,11.48
2018-06-12T22:24:48.054Z,11.88
2018-06-12T22:27:15.636Z,10.88
2018-06-12T22:29:43.195Z,10.45
2018-06-12T22:32:10.807Z,10.55
2018-06-12T22:34:38.391Z,10.55
2018-06-12T22:37:05.983Z,10.82
2018-06-12T22:39:34.168Z,10.90
2018-06-12T22:42:02.161Z,9.03
2018-06-12T22:44:30.539Z,9.93
2018-06-12T22:46:58.611Z,10.05
2018-06-12T22:49:26.422Z,9.53
2018-06-12T22:51:54.039Z,9.38
2018-06-12T22:54:22.520Z,9.63
2018-06-12T22:56:50.115Z,9.78
2018-06-12T22:59:17.683Z,10.18
2018-06-12T23:01:45.290Z,10.32
2018-06-12T23:04:12.878Z,10.78
2018-06-12T23:06:40.475Z,10.43
2018-06-12T23:09:08.121Z,9.68
2018-06-12T23:11:35.950Z,10.28
2018-06-12T23:14:04.022Z,10.82
2018-06-12T23:16:31.626Z,11.20
2018-06-12T23:18:59.451Z,11.60
2018-06-12T23:21:45.776Z,10.40
2018-06-12T23:24:13.395Z,11.65
2018-06-12T23:26:40.995Z,10.72
2018-06-12T23:29:08.566Z,10.65
2018-06-12T23:31:36.500Z,11.15
2018-06-12T23:34:04.571Z,10.75
2018-06-12T23:36:32.488Z,10.75
2018-06-12T23:39:00.407Z,11.50
2018-06-12T23:41:29.009Z,11.30
2018-06-12T23:43:56.655Z,11.28
2018-06-12T23:46:24.246Z,11.12
2018-06-12T23:48:51.846Z,10.70
2018-06-12T23:51:19.558Z,10.93
2018-06-12T23:53:47.160Z,11.05
2018-06-12T23:56:15.228Z,11.08
2018-06-12T23:58:43.140Z,11.48
